Time;durP1;ratioP1;P1;durP2;ratioP2;P2;SDS_P1;SDS_P2;PMS_P1;PMS_P2;Temp;Humidity;BMP_temperature;BMP_pressure;BME280_temperature;BME280_humidity;BME280_pressure;Samples;Min_cycle;Max_cycle;Signal;HPM_P1;HPM_P2
2021/04/22 00:00:34;;;;;;;1.60;1.30;;;6.70;86.20;;;;;;5029599;28;20463;-80
2021/04/22 00:03:01;;;;;;;1.57;1.30;;;6.70;86.00;;;;;;5035335;28;20495;-82
2021/04/22 00:05:31;;;;;;;1.50;1.30;;;6.60;86.20;;;;;;5027161;28;20471;-80
2021/04/22 00:07:59;;;;;;;1.50;1.30;;;6.60;86.30;;;;;;5036364;28;20966;-80
2021/04/22 00:10:27;;;;;;;1.50;1.40;;;6.60;86.50;;;;;;5026327;28;20499;-81
2021/04/22 00:12:54;;;;;;;1.53;1.37;;;6.60;86.70;;;;;;5034636;28;20484;-80
2021/04/22 00:15:21;;;;;;;1.50;1.30;;;6.50;86.90;;;;;;5036615;28;21062;-81
2021/04/22 00:17:49;;;;;;;1.53;1.30;;;6.50;87.10;;;;;;5033121;28;20533;-80
2021/04/22 00:20:16;;;;;;;1.60;1.30;;;6.50;86.80;;;;;;5033650;28;20517;-80
2021/04/22 00:22:43;;;;;;;1.50;1.27;;;6.50;87.60;;;;;;5033872;28;20491;-79
2021/04/22 00:25:11;;;;;;;1.57;1.30;;;6.40;87.30;;;;;;5028888;28;20467;-79
2021/04/22 00:27:38;;;;;;;1.60;1.40;;;6.40;87.40;;;;;;5034787;28;20494;-80
2021/04/22 00:30:07;;;;;;;1.60;1.30;;;6.40;87.60;;;;;;5027191;28;20468;-81
2021/04/22 00:32:33;;;;;;;1.50;1.30;;;6.30;87.40;;;;;;5035195;28;20487;-80
2021/04/22 00:35:00;;;;;;;1.50;1.40;;;6.30;88.10;;;;;;5035873;28;20898;-81
2021/04/22 00:37:26;;;;;;;1.60;1.40;;;6.20;87.80;;;;;;5033257;28;20470;-81
2021/04/22 00:39:52;;;;;;;1.50;1.30;;;6.20;87.90;;;;;;5029500;28;20472;-80
2021/04/22 00:42:20;;;;;;;1.60;1.40;;;6.10;88.00;;;;;;5032967;28;20513;-80
2021/04/22 00:44:47;;;;;;;1.50;1.30;;;6.10;88.00;;;;;;5030859;28;20475;-80
2021/04/22 00:47:15;;;;;;;1.53;1.30;;;6.10;88.10;;;;;;5031204;28;20456;-81
2021/04/22 00:49:42;;;;;;;1.53;1.30;;;6.00;88.40;;;;;;5023990;28;20792;-81
2021/04/22 00:52:10;;;;;;;1.50;1.30;;;6.00;88.20;;;;;;5033135;28;20480;-80
2021/04/22 00:54:37;;;;;;;1.60;1.30;;;5.90;88.50;;;;;;5029942;28;20501;-79
2021/04/22 00:57:04;;;;;;;1.60;1.40;;;5.90;88.60;;;;;;5028255;28;20459;-79
2021/04/22 00:59:31;;;;;;;1.60;1.30;;;5.90;88.70;;;;;;5029242;28;20492;-81
2021/04/22 01:01:57;;;;;;;1.50;1.30;;;5.90;88.70;;;;;;5032390;28;20558;-81
2021/04/22 01:04:23;;;;;;;1.60;1.40;;;5.80;88.90;;;;;;5028939;28;20464;-78
2021/04/22 01:06:51;;;;;;;1.57;1.30;;;5.80;89.00;;;;;;5032410;28;20474;-80
2021/04/22 01:09:17;;;;;;;1.57;1.37;;;5.80;88.90;;;;;;5035637;28;20459;-80
2021/04/22 01:11:43;;;;;;;1.50;1.30;;;5.80;89.10;;;;;;5030298;28;20482;-81
2021/04/22 01:14:10;;;;;;;1.60;1.40;;;5.70;89.20;;;;;;5027551;28;20489;-80
2021/04/22 01:16:37;;;;;;;1.50;1.40;;;5.70;89.20;;;;;;5030739;28;20463;-79
2021/04/22 01:19:05;;;;;;;1.57;1.30;;;5.60;89.40;;;;;;5036281;28;20451;-82
2021/04/22 01:21:32;;;;;;;1.57;1.30;;;5.60;89.50;;;;;;5023794;28;20537;-81
2021/04/22 01:23:59;;;;;;;1.50;1.40;;;5.60;89.50;;;;;;5033020;28;20452;-82
2021/04/22 01:26:26;;;;;;;1.53;1.40;;;5.50;89.50;;;;;;5030516;28;20462;-81
2021/04/22 01:28:54;;;;;;;1.60;1.40;;;5.50;89.70;;;;;;5033650;28;20487;-79
2021/04/22 01:31:20;;;;;;;1.57;1.30;;;5.50;89.80;;;;;;5033446;28;20452;-80
2021/04/22 01:33:47;;;;;;;1.50;1.40;;;5.40;89.80;;;;;;5041720;28;20491;-79
2021/04/22 01:36:13;;;;;;;1.60;1.40;;;5.40;89.60;;;;;;5042856;28;20466;-80
2021/04/22 01:38:40;;;;;;;1.60;1.40;;;5.40;89.90;;;;;;5031751;28;20872;-80
2021/04/22 01:41:07;;;;;;;1.60;1.30;;;5.30;90.20;;;;;;5033920;28;20492;-81
2021/04/22 01:43:33;;;;;;;1.60;1.40;;;5.30;89.70;;;;;;5041234;28;20507;-80
2021/04/22 01:46:00;;;;;;;1.60;1.30;;;5.30;90.20;;;;;;5039297;28;20472;-80
2021/04/22 01:48:27;;;;;;;1.60;1.50;;;5.20;90.20;;;;;;5036782;28;20470;-80
2021/04/22 01:50:54;;;;;;;1.60;1.50;;;5.20;90.40;;;;;;5029790;28;20522;-80
2021/04/22 01:53:20;;;;;;;1.60;1.50;;;5.10;90.30;;;;;;5025785;28;20514;-78
2021/04/22 01:55:50;;;;;;;1.57;1.40;;;5.10;90.70;;;;;;5029030;28;20542;-81
2021/04/22 01:58:19;;;;;;;1.60;1.50;;;5.10;90.50;;;;;;5020147;28;20471;-81
2021/04/22 02:00:47;;;;;;;1.60;1.40;;;5.10;90.40;;;;;;5027219;28;20459;-81
2021/04/22 02:03:14;;;;;;;1.60;1.40;;;5.00;90.50;;;;;;5025037;28;20476;-82
2021/04/22 02:05:41;;;;;;;1.60;1.40;;;5.00;90.70;;;;;;5023770;28;20459;-82
2021/04/22 02:08:09;;;;;;;1.60;1.47;;;5.00;90.70;;;;;;5025892;28;20547;-77
2021/04/22 02:10:35;;;;;;;1.50;1.30;;;5.00;90.80;;;;;;5029778;28;20547;-79
2021/04/22 02:13:04;;;;;;;1.60;1.40;;;4.90;91.00;;;;;;5030631;28;20492;-82
2021/04/22 02:15:32;;;;;;;1.57;1.40;;;4.90;91.00;;;;;;5026175;28;20671;-82
2021/04/22 02:17:59;;;;;;;1.50;1.40;;;4.90;91.10;;;;;;5026746;28;20468;-82
2021/04/22 02:20:26;;;;;;;1.57;1.40;;;4.80;91.50;;;;;;5034636;28;20478;-80
2021/04/22 02:22:53;;;;;;;1.60;1.50;;;4.80;91.20;;;;;;5025977;28;20789;-81
2021/04/22 02:25:22;;;;;;;1.57;1.40;;;4.80;91.40;;;;;;5026138;28;20459;-80
2021/04/22 02:27:48;;;;;;;1.60;1.40;;;4.80;91.90;;;;;;5028745;28;20485;-82
2021/04/22 02:30:18;;;;;;;1.53;1.40;;;4.70;91.90;;;;;;5034337;28;20604;-82
2021/04/22 02:32:45;;;;;;;1.53;1.40;;;4.70;92.00;;;;;;5025997;28;20487;-81
2021/04/22 02:35:14;;;;;;;1.60;1.50;;;4.60;92.00;;;;;;5034997;28;20471;-81
2021/04/22 02:37:41;;;;;;;1.60;1.50;;;4.60;92.20;;;;;;5039176;28;20491;-84
2021/04/22 02:40:10;;;;;;;1.57;1.30;;;4.60;92.30;;;;;;5031819;28;20497;-80
2021/04/22 02:42:37;;;;;;;1.60;1.40;;;4.60;92.20;;;;;;5035533;28;20538;-81
2021/04/22 02:45:06;;;;;;;1.60;1.40;;;4.60;92.20;;;;;;5034380;28;20467;-81
2021/04/22 02:47:33;;;;;;;1.60;1.40;;;4.50;92.60;;;;;;5034044;28;20466;-81
2021/04/22 02:49:59;;;;;;;1.70;1.60;;;4.50;92.50;;;;;;5035774;28;20718;-83
2021/04/22 02:52:25;;;;;;;1.57;1.40;;;4.50;92.10;;;;;;5034197;28;20490;-81
2021/04/22 02:54:52;;;;;;;1.57;1.40;;;4.40;92.30;;;;;;5039351;28;20459;-80
2021/04/22 02:57:18;;;;;;;1.57;1.40;;;4.40;92.80;;;;;;5027029;28;20456;-82
2021/04/22 02:59:44;;;;;;;1.57;1.40;;;4.40;92.60;;;;;;5032405;28;20468;-81
2021/04/22 03:02:11;;;;;;;1.60;1.40;;;4.40;93.00;;;;;;5034773;28;20539;-78
2021/04/22 03:04:38;;;;;;;1.53;1.40;;;4.40;93.20;;;;;;5038741;28;20464;-81
2021/04/22 03:07:04;;;;;;;1.57;1.43;;;4.40;93.40;;;;;;5025869;28;20487;-80
2021/04/22 03:09:31;;;;;;;1.60;1.50;;;4.30;93.30;;;;;;5037445;28;20451;-81
2021/04/22 03:11:57;;;;;;;1.60;1.40;;;4.30;93.30;;;;;;5037749;28;20544;-81
2021/04/22 03:14:23;;;;;;;1.60;1.40;;;4.30;93.10;;;;;;5032031;28;20561;-82
2021/04/22 03:16:49;;;;;;;1.60;1.50;;;4.30;93.50;;;;;;5031459;28;20468;-80
2021/04/22 03:19:16;;;;;;;1.60;1.40;;;4.30;93.40;;;;;;5031676;28;20468;-79
2021/04/22 03:21:43;;;;;;;1.60;1.40;;;4.30;93.40;;;;;;5030832;28;20460;-81
2021/04/22 03:24:10;;;;;;;1.63;1.53;;;4.30;93.70;;;;;;5027239;28;20518;-81
2021/04/22 03:26:36;;;;;;;1.60;1.40;;;4.30;93.10;;;;;;5037302;28;20466;-79
2021/04/22 03:29:03;;;;;;;1.60;1.50;;;4.20;93.80;;;;;;5032032;28;20592;-81
2021/04/22 03:31:30;;;;;;;1.57;1.40;;;4.20;94.00;;;;;;5032426;28;20471;-80
2021/04/22 03:33:56;;;;;;;1.60;1.43;;;4.20;93.80;;;;;;5030004;28;20491;-79
2021/04/22 03:36:22;;;;;;;1.60;1.50;;;4.20;93.60;;;;;;5035814;28;20838;-81
2021/04/22 03:38:49;;;;;;;1.57;1.40;;;4.20;93.70;;;;;;5037042;28;20460;-80
2021/04/22 03:41:16;;;;;;;1.60;1.50;;;4.20;93.40;;;;;;5030376;28;20470;-80
2021/04/22 03:43:42;;;;;;;1.60;1.50;;;4.20;93.30;;;;;;5036682;28;20475;-80
2021/04/22 03:46:08;;;;;;;1.60;1.50;;;4.20;93.60;;;;;;5029704;28;20471;-81
2021/04/22 03:48:35;;;;;;;1.57;1.40;;;4.10;93.80;;;;;;5036522;28;21041;-82
2021/04/22 03:51:01;;;;;;;1.80;1.70;;;4.10;94.70;;;;;;5032413;28;20463;-81
2021/04/22 03:53:27;;;;;;;1.60;1.50;;;4.10;94.90;;;;;;5034341;28;20512;-81
2021/04/22 03:55:54;;;;;;;1.57;1.30;;;4.10;94.70;;;;;;5028500;28;20468;-81
2021/04/22 03:58:21;;;;;;;1.53;1.30;;;4.10;95.30;;;;;;5035444;28;20531;-81
2021/04/22 04:00:47;;;;;;;1.60;1.40;;;4.10;94.60;;;;;;5029171;28;20470;-78
2021/04/22 04:03:13;;;;;;;1.60;1.43;;;4.10;95.10;;;;;;5028280;28;20860;-78
2021/04/22 04:05:39;;;;;;;1.60;1.50;;;4.10;95.10;;;;;;5035241;28;20771;-79
2021/04/22 04:08:06;;;;;;;1.57;1.40;;;4.10;95.30;;;;;;5028562;28;20467;-80
2021/04/22 04:10:33;;;;;;;1.57;1.40;;;4.10;94.90;;;;;;5036092;28;20540;-81
2021/04/22 04:13:00;;;;;;;1.60;1.50;;;4.00;95.00;;;;;;5031518;28;21120;-82
2021/04/22 04:15:26;;;;;;;1.60;1.40;;;4.10;95.30;;;;;;5037275;28;21005;-80
2021/04/22 04:17:52;;;;;;;1.60;1.50;;;4.10;96.50;;;;;;5036619;28;20471;-80
2021/04/22 04:20:19;;;;;;;1.60;1.40;;;4.10;95.90;;;;;;5029325;28;20464;-79
2021/04/22 04:22:47;;;;;;;1.57;1.30;;;4.00;96.30;;;;;;5034662;28;20479;-81
2021/04/22 04:25:14;;;;;;;1.50;1.40;;;4.00;95.80;;;;;;5028465;28;20826;-79
2021/04/22 04:27:41;;;;;;;1.53;1.40;;;4.00;96.50;;;;;;5035015;28;20546;-79
2021/04/22 04:30:11;;;;;;;1.60;1.50;;;4.00;96.00;;;;;;5026804;28;20476;-79
2021/04/22 04:32:38;;;;;;;1.73;1.63;;;4.00;96.00;;;;;;5034772;28;20606;-78
2021/04/22 04:35:05;;;;;;;1.60;1.40;;;4.00;96.30;;;;;;5037678;28;20467;-78
2021/04/22 04:37:31;;;;;;;1.50;1.37;;;4.00;96.80;;;;;;5035538;28;20851;-80
2021/04/22 04:39:57;;;;;;;1.53;1.40;;;4.00;96.00;;;;;;5024430;28;20473;-79
2021/04/22 04:42:24;;;;;;;1.60;1.50;;;4.00;96.70;;;;;;5032935;28;20487;-80
2021/04/22 04:44:50;;;;;;;1.57;1.40;;;4.00;97.30;;;;;;5029246;28;20468;-77
2021/04/22 04:47:17;;;;;;;1.57;1.40;;;4.00;97.20;;;;;;5034649;28;20468;-78
2021/04/22 04:49:43;;;;;;;1.73;1.63;;;4.00;96.30;;;;;;5026501;28;20497;-81
2021/04/22 04:52:10;;;;;;;1.60;1.40;;;4.00;96.40;;;;;;5034836;28;20479;-80
2021/04/22 04:54:36;;;;;;;1.70;1.60;;;4.00;96.90;;;;;;5032952;28;20484;-82
2021/04/22 04:57:03;;;;;;;1.57;1.40;;;4.10;97.30;;;;;;5031226;28;20764;-79
2021/04/22 04:59:29;;;;;;;1.57;1.40;;;4.10;97.10;;;;;;5025684;28;20463;-82
2021/04/22 05:01:55;;;;;;;1.60;1.40;;;4.10;96.70;;;;;;5029979;28;20533;-79
2021/04/22 05:04:22;;;;;;;1.50;1.30;;;4.10;96.90;;;;;;5035047;28;20470;-81
2021/04/22 05:06:49;;;;;;;1.57;1.40;;;4.20;97.00;;;;;;5027917;28;20472;-82
2021/04/22 05:09:15;;;;;;;1.57;1.40;;;4.20;97.10;;;;;;5032102;28;20486;-81
2021/04/22 05:11:41;;;;;;;1.50;1.30;;;4.20;97.50;;;;;;5033767;28;21057;-81
2021/04/22 05:14:08;;;;;;;1.53;1.40;;;4.30;96.90;;;;;;5025319;28;20483;-81
2021/04/22 05:16:34;;;;;;;1.60;1.50;;;4.30;97.00;;;;;;5034315;28;20473;-81
2021/04/22 05:19:00;;;;;;;1.63;1.53;;;4.40;96.70;;;;;;5035550;28;20479;-78
2021/04/22 05:21:27;;;;;;;1.57;1.43;;;4.40;97.20;;;;;;5027232;28;20471;-81
2021/04/22 05:23:54;;;;;;;1.50;1.30;;;4.50;97.00;;;;;;5027759;28;20467;-80
2021/04/22 05:26:20;;;;;;;1.50;1.30;;;4.50;97.10;;;;;;5033005;28;20775;-80
2021/04/22 05:28:47;;;;;;;1.60;1.50;;;4.60;96.90;;;;;;5033695;28;20463;-79
2021/04/22 05:31:13;;;;;;;1.57;1.40;;;4.70;97.20;;;;;;5022166;28;20527;-78
2021/04/22 05:33:39;;;;;;;1.60;1.33;;;4.90;98.00;;;;;;5030710;28;20491;-80
2021/04/22 05:36:06;;;;;;;1.60;1.40;;;5.00;97.10;;;;;;5033069;28;20469;-80
2021/04/22 05:38:33;;;;;;;1.60;1.40;;;5.20;97.40;;;;;;5033278;28;20511;-80
2021/04/22 05:41:00;;;;;;;1.53;1.30;;;5.40;97.00;;;;;;5028157;28;20467;-78
2021/04/22 05:43:26;;;;;;;1.53;1.30;;;5.70;96.90;;;;;;5033706;28;20471;-81
2021/04/22 05:45:52;;;;;;;1.60;1.30;;;5.80;94.30;;;;;;5029902;28;20466;-82
2021/04/22 05:48:19;;;;;;;1.60;1.50;;;5.90;95.10;;;;;;5036399;28;20835;-79
2021/04/22 05:50:45;;;;;;;1.57;1.30;;;6.20;95.50;;;;;;5034559;28;20480;-79
2021/04/22 05:53:11;;;;;;;1.60;1.40;;;6.30;93.40;;;;;;5033608;28;20494;-80
2021/04/22 05:55:38;;;;;;;1.53;1.30;;;6.50;94.00;;;;;;5035116;28;20497;-78
2021/04/22 05:58:04;;;;;;;1.57;1.30;;;6.70;92.20;;;;;;5038436;28;20521;-81
2021/04/22 06:00:31;;;;;;;1.50;1.27;;;6.90;92.60;;;;;;5038249;28;21001;-79
2021/04/22 06:02:58;;;;;;;1.50;1.30;;;7.10;92.20;;;;;;5036253;28;20483;-78
2021/04/22 06:05:24;;;;;;;1.57;1.20;;;7.30;90.90;;;;;;5027218;28;20981;-80
2021/04/22 06:07:51;;;;;;;1.53;1.30;;;7.40;89.60;;;;;;5034401;28;20459;-78
2021/04/22 06:10:18;;;;;;;1.50;1.27;;;7.50;90.20;;;;;;5026089;28;20495;-79
2021/04/22 06:12:45;;;;;;;1.53;1.27;;;7.40;88.80;;;;;;5026424;28;20521;-78
2021/04/22 06:15:12;;;;;;;1.57;1.20;;;7.60;90.50;;;;;;5031206;28;20455;-78
2021/04/22 06:17:39;;;;;;;1.50;1.30;;;7.90;88.90;;;;;;5030910;28;20765;-79
2021/04/22 06:20:08;;;;;;;1.57;1.30;;;8.10;88.20;;;;;;5033356;28;20459;-79
2021/04/22 06:22:35;;;;;;;1.50;1.20;;;8.30;87.60;;;;;;5028561;28;20985;-77
2021/04/22 06:25:01;;;;;;;1.50;1.20;;;8.50;87.10;;;;;;5029824;28;20459;-78
2021/04/22 06:27:27;;;;;;;1.50;1.20;;;8.60;86.90;;;;;;5030420;28;20744;-78
2021/04/22 06:29:54;;;;;;;1.50;1.20;;;8.70;86.50;;;;;;5028819;28;20463;-78
2021/04/22 06:32:20;;;;;;;1.60;1.40;;;8.80;85.80;;;;;;5030774;28;20492;-79
2021/04/22 06:34:47;;;;;;;1.50;1.20;;;8.90;85.90;;;;;;5036557;28;20493;-79
2021/04/22 06:37:13;;;;;;;1.60;1.40;;;9.00;86.10;;;;;;5034692;28;20467;-79
2021/04/22 06:39:39;;;;;;;1.50;1.20;;;9.10;85.50;;;;;;5029101;28;20467;-78
2021/04/22 06:42:06;;;;;;;1.50;1.10;;;9.10;85.10;;;;;;5026799;28;20483;-80
2021/04/22 06:44:33;;;;;;;1.60;1.23;;;9.10;85.20;;;;;;5030970;28;20463;-77
2021/04/22 06:47:00;;;;;;;1.50;1.20;;;9.10;84.70;;;;;;5029502;28;20484;-78
2021/04/22 06:49:27;;;;;;;1.50;1.20;;;9.00;84.70;;;;;;5025360;28;20471;-78
2021/04/22 06:51:53;;;;;;;1.50;1.10;;;8.90;85.20;;;;;;5034623;28;20906;-79
2021/04/22 06:54:19;;;;;;;1.50;1.20;;;8.90;85.10;;;;;;5032906;28;20506;-78
2021/04/22 06:56:46;;;;;;;1.50;1.20;;;8.90;84.90;;;;;;5028693;28;20467;-78
2021/04/22 06:59:12;;;;;;;1.50;1.20;;;8.80;84.90;;;;;;5037796;28;20555;-81
2021/04/22 07:01:38;;;;;;;1.50;1.20;;;8.80;84.30;;;;;;5035302;28;20860;-80
2021/04/22 07:04:06;;;;;;;1.50;1.20;;;8.70;85.00;;;;;;5036409;28;20930;-80
2021/04/22 07:06:32;;;;;;;1.50;1.20;;;8.60;84.80;;;;;;5035111;28;20542;-79
2021/04/22 07:08:59;;;;;;;1.50;1.20;;;8.60;85.70;;;;;;5031068;28;20474;-81
2021/04/22 07:11:25;;;;;;;1.50;1.20;;;8.60;83.40;;;;;;5029325;28;20476;-79
2021/04/22 07:13:51;;;;;;;1.50;1.20;;;8.60;82.80;;;;;;5029850;28;20616;-81
2021/04/22 07:16:18;;;;;;;1.50;1.20;;;8.50;81.60;;;;;;5037565;28;20462;-80
2021/04/22 07:18:44;;;;;;;1.50;1.17;;;8.60;82.20;;;;;;5034595;28;20459;-77
2021/04/22 07:21:11;;;;;;;1.50;1.10;;;8.60;82.70;;;;;;5034385;28;20973;-79
2021/04/22 07:23:37;;;;;;;1.50;1.20;;;8.90;82.70;;;;;;5033211;28;20482;-79
2021/04/22 07:26:03;;;;;;;1.50;1.20;;;9.10;82.70;;;;;;5029272;28;20456;-79
2021/04/22 07:28:30;;;;;;;1.50;1.20;;;9.20;79.80;;;;;;5033658;28;20463;-78
2021/04/22 07:30:57;;;;;;;1.57;1.10;;;9.30;79.70;;;;;;5027413;28;20467;-77
2021/04/22 07:33:23;;;;;;;1.50;1.10;;;9.40;79.00;;;;;;5032600;28;20499;-80
2021/04/22 07:35:49;;;;;;;1.50;1.10;;;9.50;79.60;;;;;;5027874;28;20475;-78
2021/04/22 07:38:17;;;;;;;1.53;1.20;;;9.80;80.30;;;;;;5034811;28;20466;-79
2021/04/22 07:40:44;;;;;;;1.50;1.10;;;10.10;78.80;;;;;;5031191;28;20493;-79
2021/04/22 07:43:12;;;;;;;1.50;1.10;;;10.40;77.20;;;;;;5031549;28;20895;-80
2021/04/22 07:45:41;;;;;;;1.50;1.10;;;10.50;75.80;;;;;;5032036;28;20468;-79
2021/04/22 07:48:09;;;;;;;1.50;1.10;;;10.60;76.00;;;;;;5035618;28;20463;-79
2021/04/22 07:50:38;;;;;;;1.50;1.10;;;10.80;76.50;;;;;;5034642;28;20714;-79
2021/04/22 07:53:07;;;;;;;1.50;1.03;;;11.00;73.60;;;;;;5025327;28;20493;-80
2021/04/22 07:55:36;;;;;;;1.50;1.10;;;11.10;72.10;;;;;;5034348;28;20467;-80
2021/04/22 07:58:03;;;;;;;1.50;1.00;;;11.00;72.60;;;;;;5034193;28;20925;-79
2021/04/22 08:00:31;;;;;;;1.50;1.10;;;11.10;71.90;;;;;;5028399;28;20517;-79
2021/04/22 08:02:57;;;;;;;1.50;1.00;;;11.20;71.50;;;;;;5031063;28;20554;-79
2021/04/22 08:05:27;;;;;;;1.50;1.00;;;11.10;72.00;;;;;;5030205;28;20555;-81
2021/04/22 08:07:53;;;;;;;1.50;1.00;;;11.20;72.60;;;;;;5027909;28;20465;-79
2021/04/22 08:10:21;;;;;;;1.50;1.00;;;11.30;72.60;;;;;;5028765;28;20826;-80
2021/04/22 08:12:49;;;;;;;1.50;1.10;;;11.40;72.70;;;;;;5034739;28;20984;-80
2021/04/22 08:15:17;;;;;;;1.50;1.00;;;11.60;72.00;;;;;;5027813;28;20475;-79
2021/04/22 08:17:44;;;;;;;1.50;1.00;;;11.50;71.00;;;;;;5033505;28;20456;-80
2021/04/22 08:20:20;;;;;;;1.50;1.10;;;11.40;72.70;;;;;;5026252;28;20526;-79
2021/04/22 08:22:49;;;;;;;1.50;1.00;;;11.40;71.90;;;;;;5033752;28;20482;-78
2021/04/22 08:25:19;;;;;;;1.50;1.10;;;11.30;72.70;;;;;;5028944;28;20466;-78
2021/04/22 08:27:46;;;;;;;1.50;1.10;;;11.50;72.70;;;;;;5028553;28;20498;-82
2021/04/22 08:30:16;;;;;;;1.50;1.00;;;11.80;72.10;;;;;;5027168;28;20472;-77
2021/04/22 08:32:42;;;;;;;1.50;1.00;;;12.00;71.90;;;;;;5030848;28;20842;-80
2021/04/22 08:35:10;;;;;;;1.50;1.10;;;12.30;72.10;;;;;;5031339;28;20467;-80
2021/04/22 08:37:37;;;;;;;1.50;1.00;;;12.50;71.80;;;;;;5027509;28;20465;-80
2021/04/22 08:40:06;;;;;;;1.50;1.00;;;12.60;70.40;;;;;;5033963;28;20535;-81
2021/04/22 08:42:33;;;;;;;1.50;1.00;;;12.60;69.50;;;;;;5029706;28;20503;-78
2021/04/22 08:45:00;;;;;;;1.50;0.93;;;12.60;69.10;;;;;;5032637;28;20460;-78
2021/04/22 08:47:28;;;;;;;1.50;1.00;;;12.60;70.50;;;;;;5030550;28;20455;-78
2021/04/22 08:49:55;;;;;;;1.70;1.40;;;12.60;69.00;;;;;;5031741;28;20463;-77
2021/04/22 08:52:22;;;;;;;1.50;1.00;;;12.70;69.40;;;;;;5030836;28;20485;-79
2021/04/22 08:54:49;;;;;;;1.50;1.00;;;12.60;69.50;;;;;;5027336;28;20483;-77
2021/04/22 08:57:15;;;;;;;1.50;0.90;;;12.60;69.30;;;;;;5029753;28;20467;-78
2021/04/22 08:59:42;;;;;;;1.50;0.90;;;12.60;70.50;;;;;;5028776;28;20468;-79
2021/04/22 09:02:08;;;;;;;1.50;1.00;;;12.70;70.30;;;;;;5034974;28;20872;-78
2021/04/22 09:04:36;;;;;;;1.50;1.00;;;12.90;70.50;;;;;;5018811;28;20544;-78
2021/04/22 09:07:03;;;;;;;1.50;0.90;;;13.00;70.00;;;;;;5036089;28;20621;-79
2021/04/22 09:09:29;;;;;;;1.43;0.97;;;13.20;68.90;;;;;;5036237;28;20921;-81
2021/04/22 09:11:56;;;;;;;1.50;1.00;;;13.30;67.90;;;;;;5027295;28;20484;-81
2021/04/22 09:14:23;;;;;;;1.50;1.00;;;13.30;68.90;;;;;;5034065;28;20491;-78
2021/04/22 09:16:50;;;;;;;1.50;1.00;;;13.50;68.00;;;;;;5032687;28;20463;-78
2021/04/22 09:19:19;;;;;;;1.50;1.00;;;13.60;67.60;;;;;;5031152;28;20912;-77
2021/04/22 09:21:52;;;;;;;1.50;1.00;;;13.70;66.70;;;;;;5023336;28;20477;-78
2021/04/22 09:24:21;;;;;;;2.70;1.37;;;13.90;68.40;;;;;;5033706;28;20499;-79
2021/04/22 09:26:51;;;;;;;1.50;1.00;;;14.20;68.20;;;;;;5037731;28;20466;-77
2021/04/22 09:29:31;;;;;;;1.50;1.07;;;14.40;66.30;;;;;;5024101;28;20480;-78
2021/04/22 09:32:07;;;;;;;1.47;0.90;;;14.20;66.00;;;;;;5037867;28;20953;-81
2021/04/22 09:34:33;;;;;;;1.50;0.90;;;14.40;67.50;;;;;;5031213;28;20486;-79
2021/04/22 09:37:01;;;;;;;1.50;0.90;;;14.50;66.30;;;;;;5028057;28;20900;-77
2021/04/22 09:39:29;;;;;;;1.50;1.03;;;14.60;65.60;;;;;;5025469;28;20528;-77
2021/04/22 09:41:59;;;;;;;1.47;0.90;;;14.50;66.00;;;;;;5038453;28;20526;-79
2021/04/22 09:44:27;;;;;;;1.50;1.00;;;14.50;65.30;;;;;;5031833;28;20479;-79
2021/04/22 09:47:08;;;;;;;1.50;1.00;;;14.60;66.60;;;;;;5026438;28;20470;-79
2021/04/22 09:49:44;;;;;;;1.43;1.00;;;14.50;65.50;;;;;;5029218;28;20463;-78
2021/04/22 09:52:14;;;;;;;1.50;1.00;;;14.60;65.40;;;;;;5027611;28;20934;-78
2021/04/22 09:54:45;;;;;;;1.50;0.97;;;14.70;65.50;;;;;;5027653;28;20488;-79
2021/04/22 09:57:21;;;;;;;1.43;0.97;;;14.80;65.70;;;;;;5031588;28;20554;-80
2021/04/22 09:59:48;;;;;;;1.50;0.93;;;14.70;64.00;;;;;;5024874;28;20475;-80
2021/04/22 10:02:15;;;;;;;1.47;0.90;;;14.80;66.30;;;;;;5031409;28;20479;-78
2021/04/22 10:04:43;;;;;;;1.50;1.00;;;15.00;64.90;;;;;;5026838;28;20467;-80
2021/04/22 10:07:23;;;;;;;1.50;1.00;;;15.00;64.80;;;;;;5030227;28;20467;-79
2021/04/22 10:09:50;;;;;;;1.63;1.27;;;14.90;64.30;;;;;;5023618;28;20473;-81
2021/04/22 10:12:24;;;;;;;1.40;1.00;;;14.80;63.70;;;;;;5031925;28;20483;-80
2021/04/22 10:14:51;;;;;;;1.50;0.90;;;15.10;65.40;;;;;;5028996;28;20490;-80
2021/04/22 10:17:23;;;;;;;1.50;0.90;;;15.20;65.30;;;;;;5032896;28;20513;-79
2021/04/22 10:20:01;;;;;;;1.50;1.00;;;15.30;64.50;;;;;;5022546;28;20510;-81
2021/04/22 10:22:30;;;;;;;1.50;0.90;;;15.50;64.70;;;;;;5029453;28;20574;-79
2021/04/22 10:24:57;;;;;;;1.50;0.90;;;15.60;64.00;;;;;;5036359;28;20463;-80
2021/04/22 10:27:25;;;;;;;1.50;0.90;;;15.60;63.50;;;;;;5028055;28;20502;-81
2021/04/22 10:29:53;;;;;;;1.50;1.00;;;15.50;63.30;;;;;;5030918;28;20498;-79
2021/04/22 10:32:20;;;;;;;1.50;0.90;;;15.60;64.10;;;;;;5035401;28;20538;-79
2021/04/22 10:34:47;;;;;;;1.50;0.90;;;15.80;63.90;;;;;;5028319;28;20483;-79
2021/04/22 10:37:14;;;;;;;1.50;0.90;;;15.90;64.20;;;;;;5027373;28;20506;-81
2021/04/22 10:39:42;;;;;;;1.50;1.00;;;16.00;63.10;;;;;;5033095;28;20467;-78
2021/04/22 10:42:09;;;;;;;1.50;1.00;;;16.10;62.30;;;;;;5030855;28;20487;-79
2021/04/22 10:44:37;;;;;;;1.50;0.90;;;16.20;63.00;;;;;;5033587;28;20463;-81
2021/04/22 10:47:04;;;;;;;1.50;1.00;;;16.20;61.80;;;;;;5026914;28;20465;-81
2021/04/22 10:49:31;;;;;;;1.50;0.90;;;16.10;63.20;;;;;;5035409;28;20557;-83
2021/04/22 10:51:58;;;;;;;1.50;1.00;;;16.10;65.00;;;;;;5033451;28;20637;-81
2021/04/22 10:54:24;;;;;;;1.50;1.00;;;16.20;64.00;;;;;;5038362;28;20870;-82
2021/04/22 10:57:03;;;;;;;1.50;0.90;;;16.40;62.70;;;;;;5028071;28;20879;-82
2021/04/22 10:59:29;;;;;;;1.50;0.90;;;16.30;64.00;;;;;;5030826;28;20463;-82
2021/04/22 11:01:56;;;;;;;1.50;0.90;;;16.40;62.50;;;;;;5027891;28;20521;-77
2021/04/22 11:04:22;;;;;;;1.50;0.90;;;16.50;62.90;;;;;;5038696;28;20463;-79
2021/04/22 11:06:48;;;;;;;1.50;1.00;;;16.60;63.00;;;;;;5039134;28;20502;-79
2021/04/22 11:09:17;;;;;;;1.50;1.00;;;16.90;63.70;;;;;;5036045;28;20556;-80
2021/04/22 11:11:56;;;;;;;1.50;0.90;;;17.00;61.40;;;;;;5033180;28;20470;-82
2021/04/22 11:14:36;;;;;;;1.50;0.90;;;16.90;61.40;;;;;;5034368;28;20560;-79
2021/04/22 11:17:04;;;;;;;1.47;0.90;;;16.70;62.30;;;;;;5039843;28;20452;-79
2021/04/22 11:19:33;;;;;;;1.50;0.90;;;16.80;63.00;;;;;;5037064;28;20455;-77
2021/04/22 11:22:05;;;;;;;1.50;0.90;;;17.00;61.80;;;;;;5034285;28;20487;-80
2021/04/22 11:24:33;;;;;;;1.47;0.90;;;17.00;61.40;;;;;;5035558;28;21060;-80
2021/04/22 11:27:01;;;;;;;1.40;0.90;;;17.10;64.00;;;;;;5040416;28;20452;-79
2021/04/22 11:29:39;;;;;;;1.47;0.90;;;17.20;61.40;;;;;;5027360;28;20543;-79
2021/04/22 11:32:19;;;;;;;1.50;0.90;;;17.20;60.70;;;;;;5022947;28;20494;-79
2021/04/22 11:34:47;;;;;;;1.50;0.90;;;17.20;60.00;;;;;;5029357;28;20487;-79
2021/04/22 11:37:15;;;;;;;1.50;0.90;;;17.20;61.90;;;;;;5025180;28;20543;-77
2021/04/22 11:39:42;;;;;;;1.50;0.90;;;17.10;60.10;;;;;;5025352;28;20467;-77
2021/04/22 11:42:09;;;;;;;1.50;0.90;;;17.30;61.00;;;;;;5022684;28;20510;-78
2021/04/22 11:44:39;;;;;;;1.50;0.90;;;17.20;60.70;;;;;;5029246;28;20470;-78
2021/04/22 11:47:23;;;;;;;1.43;0.90;;;17.30;60.80;;;;;;5027789;28;20467;-78
2021/04/22 11:50:11;;;;;;;1.50;0.90;;;17.50;60.50;;;;;;5029662;28;20477;-79
2021/04/22 11:52:43;;;;;;;1.50;0.90;;;17.70;60.70;;;;;;5033528;28;20491;-79
2021/04/22 11:55:15;;;;;;;1.50;1.00;;;17.70;60.40;;;;;;5036825;28;20482;-79
2021/04/22 11:57:51;;;;;;;1.50;0.90;;;17.50;59.50;;;;;;5038478;28;20451;-79
2021/04/22 12:00:19;;;;;;;1.50;0.90;;;17.40;59.70;;;;;;5026188;28;20499;-78
2021/04/22 12:02:47;;;;;;;1.50;0.90;;;17.40;60.60;;;;;;5027715;28;20546;-78
2021/04/22 12:05:16;;;;;;;1.50;0.90;;;17.20;60.00;;;;;;5027554;28;20501;-80
2021/04/22 12:07:44;;;;;;;1.50;0.90;;;17.10;62.00;;;;;;5030313;28;20459;-76
2021/04/22 12:10:13;;;;;;;1.50;1.00;;;17.00;61.90;;;;;;5024015;28;20575;-79
2021/04/22 12:12:39;;;;;;;1.50;1.00;;;17.20;61.40;;;;;;5028554;28;20479;-77
2021/04/22 12:15:07;;;;;;;1.50;1.00;;;17.30;61.30;;;;;;5024219;28;20511;-77
2021/04/22 12:17:36;;;;;;;1.50;0.90;;;17.30;61.20;;;;;;5028914;28;20559;-78
2021/04/22 12:20:06;;;;;;;1.50;0.90;;;17.40;60.80;;;;;;5027490;28;20555;-78
2021/04/22 12:22:35;;;;;;;1.47;0.90;;;17.50;60.50;;;;;;5028069;28;20478;-79
2021/04/22 12:25:08;;;;;;;1.50;1.00;;;17.40;60.80;;;;;;5028584;28;20467;-79
2021/04/22 12:27:36;;;;;;;1.47;0.90;;;17.60;61.90;;;;;;5033683;28;20467;-78
2021/04/22 12:30:19;;;;;;;1.50;0.90;;;17.70;60.20;;;;;;5025259;28;20575;-78
2021/04/22 12:32:57;;;;;;;1.47;0.90;;;17.80;60.20;;;;;;5031746;28;21158;-80
2021/04/22 12:35:26;;;;;;;1.50;0.90;;;17.80;58.70;;;;;;5033706;28;20483;-79
2021/04/22 12:37:53;;;;;;;1.50;0.90;;;17.80;59.90;;;;;;5029828;28;20460;-78
2021/04/22 12:40:21;;;;;;;1.50;0.90;;;18.00;59.80;;;;;;5024651;28;20463;-79
2021/04/22 12:42:47;;;;;;;1.50;1.10;;;17.80;58.90;;;;;;5030882;28;20491;-79
2021/04/22 12:45:17;;;;;;;1.47;0.90;;;17.80;60.60;;;;;;5026222;28;20552;-78
2021/04/22 12:47:46;;;;;;;1.70;1.50;;;17.50;59.80;;;;;;5030845;28;20467;-79
2021/04/22 12:50:16;;;;;;;1.50;0.90;;;17.50;59.80;;;;;;5026646;28;20963;-78
2021/04/22 12:52:44;;;;;;;1.50;1.00;;;17.70;60.20;;;;;;5025742;28;20505;-78
2021/04/22 12:55:13;;;;;;;1.47;0.90;;;17.70;59.60;;;;;;5020792;28;20901;-79